sensor_id;sensor_type;location;lat;lon;timestamp;P1;durP1;ratioP1;P2;durP2;ratioP2
9409;SDS011;4744;52.576;13.568;2023-07-13T00:00:46;2.08;;;1.98;;
9409;SDS011;4744;52.576;13.568;2023-07-13T00:03:14;3.42;;;2.17;;
9409;SDS011;4744;52.576;13.568;2023-07-13T00:05:42;2.53;;;1.90;;
9409;SDS011;4744;52.576;13.568;2023-07-13T00:08:09;2.45;;;2.25;;
9409;SDS011;4744;52.576;13.568;2023-07-13T00:10:38;2.85;;;2.00;;
9409;SDS011;4744;52.576;13.568;2023-07-13T00:13:07;3.00;;;2.00;;
9409;SDS011;4744;52.576;13.568;2023-07-13T00:15:34;2.00;;;1.90;;
9409;SDS011;4744;52.576;13.568;2023-07-13T00:18:02;2.22;;;2.03;;
9409;SDS011;4744;52.576;13.568;2023-07-13T00:20:30;2.05;;;1.85;;
9409;SDS011;4744;52.576;13.568;2023-07-13T00:22:58;2.53;;;2.00;;
9409;SDS011;4744;52.576;13.568;2023-07-13T00:25:25;2.05;;;1.88;;
9409;SDS011;4744;52.576;13.568;2023-07-13T00:27:53;2.45;;;1.95;;
9409;SDS011;4744;52.576;13.568;2023-07-13T00:30:20;2.20;;;2.10;;
9409;SDS011;4744;52.576;13.568;2023-07-13T00:32:48;2.00;;;1.90;;
9409;SDS011;4744;52.576;13.568;2023-07-13T00:35:14;2.00;;;1.80;;
9409;SDS011;4744;52.576;13.568;2023-07-13T00:37:43;2.15;;;1.95;;
9409;SDS011;4744;52.576;13.568;2023-07-13T00:40:10;2.40;;;2.10;;
9409;SDS011;4744;52.576;13.568;2023-07-13T00:42:39;2.05;;;1.95;;
9409;SDS011;4744;52.576;13.568;2023-07-13T00:46:02;1.88;;;1.77;;
9409;SDS011;4744;52.576;13.568;2023-07-13T00:48:13;1.80;;;1.70;;
9409;SDS011;4744;52.576;13.568;2023-07-13T00:50:43;2.00;;;1.90;;
9409;SDS011;4744;52.576;13.568;2023-07-13T00:53:14;1.75;;;1.65;;
9409;SDS011;4744;52.576;13.568;2023-07-13T00:55:41;2.13;;;1.92;;
9409;SDS011;4744;52.576;13.568;2023-07-13T00:58:08;2.05;;;1.83;;
9409;SDS011;4744;52.576;13.568;2023-07-13T01:00:35;3.08;;;2.38;;
9409;SDS011;4744;52.576;13.568;2023-07-13T01:03:04;2.67;;;2.10;;
9409;SDS011;4744;52.576;13.568;2023-07-13T01:05:32;2.05;;;1.95;;
9409;SDS011;4744;52.576;13.568;2023-07-13T01:08:01;2.50;;;2.05;;
9409;SDS011;4744;52.576;13.568;2023-07-13T01:10:31;2.72;;;2.10;;
9409;SDS011;4744;52.576;13.568;2023-07-13T01:13:04;2.05;;;1.90;;
9409;SDS011;4744;52.576;13.568;2023-07-13T01:15:34;1.90;;;1.80;;
9409;SDS011;4744;52.576;13.568;2023-07-13T01:18:03;2.13;;;2.00;;
9409;SDS011;4744;52.576;13.568;2023-07-13T01:20:31;2.03;;;1.92;;
9409;SDS011;4744;52.576;13.568;2023-07-13T01:23:03;2.30;;;2.10;;
9409;SDS011;4744;52.576;13.568;2023-07-13T01:25:31;2.40;;;2.30;;
9409;SDS011;4744;52.576;13.568;2023-07-13T01:27:59;2.78;;;2.30;;
9409;SDS011;4744;52.576;13.568;2023-07-13T01:30:26;2.33;;;2.05;;
9409;SDS011;4744;52.576;13.568;2023-07-13T01:32:54;2.20;;;2.10;;
9409;SDS011;4744;52.576;13.568;2023-07-13T01:35:21;2.90;;;2.33;;
9409;SDS011;4744;52.576;13.568;2023-07-13T01:37:50;2.58;;;2.38;;
9409;SDS011;4744;52.576;13.568;2023-07-13T01:40:19;2.92;;;2.22;;
9409;SDS011;4744;52.576;13.568;2023-07-13T01:42:46;3.15;;;2.35;;
9409;SDS011;4744;52.576;13.568;2023-07-13T01:45:13;2.05;;;1.88;;
9409;SDS011;4744;52.576;13.568;2023-07-13T01:47:40;2.33;;;2.13;;
9409;SDS011;4744;52.576;13.568;2023-07-13T01:50:07;2.30;;;2.10;;
9409;SDS011;4744;52.576;13.568;2023-07-13T01:52:34;2.40;;;2.20;;
9409;SDS011;4744;52.576;13.568;2023-07-13T01:55:01;1.90;;;1.80;;
9409;SDS011;4744;52.576;13.568;2023-07-13T01:57:30;2.15;;;2.03;;
9409;SDS011;4744;52.576;13.568;2023-07-13T01:59:57;2.72;;;2.53;;
9409;SDS011;4744;52.576;13.568;2023-07-13T02:02:24;1.95;;;1.85;;
9409;SDS011;4744;52.576;13.568;2023-07-13T02:04:51;2.20;;;2.10;;
9409;SDS011;4744;52.576;13.568;2023-07-13T02:07:18;2.35;;;2.25;;
9409;SDS011;4744;52.576;13.568;2023-07-13T02:09:44;2.53;;;2.33;;
9409;SDS011;4744;52.576;13.568;2023-07-13T02:12:11;4.03;;;2.30;;
9409;SDS011;4744;52.576;13.568;2023-07-13T02:14:40;3.47;;;2.38;;
9409;SDS011;4744;52.576;13.568;2023-07-13T02:17:08;2.67;;;2.47;;
9409;SDS011;4744;52.576;13.568;2023-07-13T02:19:36;2.55;;;2.35;;
9409;SDS011;4744;52.576;13.568;2023-07-13T02:22:03;2.60;;;2.40;;
9409;SDS011;4744;52.576;13.568;2023-07-13T02:24:30;2.75;;;2.40;;
9409;SDS011;4744;52.576;13.568;2023-07-13T02:26:57;2.20;;;2.10;;
9409;SDS011;4744;52.576;13.568;2023-07-13T02:29:24;2.67;;;2.47;;
9409;SDS011;4744;52.576;13.568;2023-07-13T02:31:52;3.65;;;2.78;;
9409;SDS011;4744;52.576;13.568;2023-07-13T02:34:19;3.53;;;3.00;;
9409;SDS011;4744;52.576;13.568;2023-07-13T02:36:46;3.20;;;2.65;;
9409;SDS011;4744;52.576;13.568;2023-07-13T02:39:13;2.70;;;2.50;;
9409;SDS011;4744;52.576;13.568;2023-07-13T02:41:40;3.75;;;2.60;;
9409;SDS011;4744;52.576;13.568;2023-07-13T02:44:07;2.92;;;2.70;;
9409;SDS011;4744;52.576;13.568;2023-07-13T02:46:34;2.83;;;2.50;;
9409;SDS011;4744;52.576;13.568;2023-07-13T02:49:04;2.53;;;2.33;;
9409;SDS011;4744;52.576;13.568;2023-07-13T02:51:31;2.30;;;2.17;;
9409;SDS011;4744;52.576;13.568;2023-07-13T02:53:59;3.30;;;2.78;;
9409;SDS011;4744;52.576;13.568;2023-07-13T02:56:27;4.32;;;3.00;;
9409;SDS011;4744;52.576;13.568;2023-07-13T02:58:55;2.53;;;2.33;;
9409;SDS011;4744;52.576;13.568;2023-07-13T03:01:22;2.80;;;2.60;;
9409;SDS011;4744;52.576;13.568;2023-07-13T03:03:50;3.50;;;2.85;;
9409;SDS011;4744;52.576;13.568;2023-07-13T03:06:19;3.58;;;3.15;;
9409;SDS011;4744;52.576;13.568;2023-07-13T03:08:48;3.67;;;3.05;;
9409;SDS011;4744;52.576;13.568;2023-07-13T03:11:17;2.50;;;2.30;;
9409;SDS011;4744;52.576;13.568;2023-07-13T03:13:46;3.05;;;2.85;;
9409;SDS011;4744;52.576;13.568;2023-07-13T03:16:13;4.05;;;3.30;;
9409;SDS011;4744;52.576;13.568;2023-07-13T03:18:41;2.95;;;2.75;;
9409;SDS011;4744;52.576;13.568;2023-07-13T03:21:09;3.35;;;3.15;;
9409;SDS011;4744;52.576;13.568;2023-07-13T03:23:37;3.80;;;3.13;;
9409;SDS011;4744;52.576;13.568;2023-07-13T03:26:05;4.07;;;3.72;;
9409;SDS011;4744;52.576;13.568;2023-07-13T03:28:34;3.58;;;3.28;;
9409;SDS011;4744;52.576;13.568;2023-07-13T03:31:02;3.42;;;3.10;;
9409;SDS011;4744;52.576;13.568;2023-07-13T03:33:31;3.08;;;2.88;;
9409;SDS011;4744;52.576;13.568;2023-07-13T03:35:58;4.00;;;3.30;;
9409;SDS011;4744;52.576;13.568;2023-07-13T03:38:25;3.17;;;2.88;;
9409;SDS011;4744;52.576;13.568;2023-07-13T03:40:53;3.08;;;2.88;;
9409;SDS011;4744;52.576;13.568;2023-07-13T03:43:20;3.80;;;3.47;;
9409;SDS011;4744;52.576;13.568;2023-07-13T03:45:47;4.85;;;3.35;;
9409;SDS011;4744;52.576;13.568;2023-07-13T03:48:14;3.05;;;2.85;;
9409;SDS011;4744;52.576;13.568;2023-07-13T03:50:41;3.58;;;3.08;;
9409;SDS011;4744;52.576;13.568;2023-07-13T03:53:08;3.83;;;3.00;;
9409;SDS011;4744;52.576;13.568;2023-07-13T03:55:35;2.90;;;2.70;;
9409;SDS011;4744;52.576;13.568;2023-07-13T04:00:53;3.10;;;2.88;;
9409;SDS011;4744;52.576;13.568;2023-07-13T04:03:20;3.45;;;3.00;;
9409;SDS011;4744;52.576;13.568;2023-07-13T04:05:47;3.78;;;2.85;;
9409;SDS011;4744;52.576;13.568;2023-07-13T04:08:14;3.67;;;3.28;;
9409;SDS011;4744;52.576;13.568;2023-07-13T04:10:41;3.58;;;3.28;;
9409;SDS011;4744;52.576;13.568;2023-07-13T04:13:08;3.85;;;3.30;;
9409;SDS011;4744;52.576;13.568;2023-07-13T04:15:38;3.10;;;2.80;;
9409;SDS011;4744;52.576;13.568;2023-07-13T04:18:06;3.15;;;2.95;;
9409;SDS011;4744;52.576;13.568;2023-07-13T04:20:32;3.22;;;2.95;;
9409;SDS011;4744;52.576;13.568;2023-07-13T04:22:59;3.40;;;3.10;;
9409;SDS011;4744;52.576;13.568;2023-07-13T04:25:26;2.90;;;2.70;;
9409;SDS011;4744;52.576;13.568;2023-07-13T04:27:53;3.25;;;3.05;;
9409;SDS011;4744;52.576;13.568;2023-07-13T04:30:21;5.05;;;3.42;;
9409;SDS011;4744;52.576;13.568;2023-07-13T04:32:51;5.32;;;3.60;;
9409;SDS011;4744;52.576;13.568;2023-07-13T04:35:18;4.85;;;3.53;;
9409;SDS011;4744;52.576;13.568;2023-07-13T04:37:46;3.20;;;2.90;;
9409;SDS011;4744;52.576;13.568;2023-07-13T04:40:15;4.80;;;3.00;;
9409;SDS011;4744;52.576;13.568;2023-07-13T04:42:43;4.80;;;3.53;;
9409;SDS011;4744;52.576;13.568;2023-07-13T04:45:11;3.38;;;2.75;;
9409;SDS011;4744;52.576;13.568;2023-07-13T04:47:39;3.22;;;2.92;;
9409;SDS011;4744;52.576;13.568;2023-07-13T04:50:09;4.20;;;3.80;;
9409;SDS011;4744;52.576;13.568;2023-07-13T04:52:36;3.65;;;3.30;;
9409;SDS011;4744;52.576;13.568;2023-07-13T04:55:04;3.22;;;3.03;;
9409;SDS011;4744;52.576;13.568;2023-07-13T04:57:31;3.20;;;2.55;;
9409;SDS011;4744;52.576;13.568;2023-07-13T04:59:58;3.97;;;3.35;;
9409;SDS011;4744;52.576;13.568;2023-07-13T05:02:26;3.05;;;2.47;;
9409;SDS011;4744;52.576;13.568;2023-07-13T05:04:53;2.88;;;2.67;;
9409;SDS011;4744;52.576;13.568;2023-07-13T05:07:21;2.75;;;2.40;;
9409;SDS011;4744;52.576;13.568;2023-07-13T05:09:48;3.03;;;2.80;;
9409;SDS011;4744;52.576;13.568;2023-07-13T05:12:15;3.75;;;3.10;;
9409;SDS011;4744;52.576;13.568;2023-07-13T05:14:42;3.15;;;2.70;;
9409;SDS011;4744;52.576;13.568;2023-07-13T05:17:09;5.20;;;2.75;;
9409;SDS011;4744;52.576;13.568;2023-07-13T05:19:36;3.55;;;3.10;;
9409;SDS011;4744;52.576;13.568;2023-07-13T05:22:03;2.80;;;2.60;;
9409;SDS011;4744;52.576;13.568;2023-07-13T05:24:32;5.25;;;3.08;;
9409;SDS011;4744;52.576;13.568;2023-07-13T05:26:59;4.43;;;2.97;;
9409;SDS011;4744;52.576;13.568;2023-07-13T05:29:26;5.13;;;2.85;;
9409;SDS011;4744;52.576;13.568;2023-07-13T05:31:53;5.20;;;2.80;;
9409;SDS011;4744;52.576;13.568;2023-07-13T05:34:20;4.38;;;2.63;;
9409;SDS011;4744;52.576;13.568;2023-07-13T05:36:47;3.35;;;2.40;;
9409;SDS011;4744;52.576;13.568;2023-07-13T05:39:14;3.90;;;2.85;;
9409;SDS011;4744;52.576;13.568;2023-07-13T05:41:42;4.35;;;2.35;;
9409;SDS011;4744;52.576;13.568;2023-07-13T05:44:09;5.50;;;2.70;;
9409;SDS011;4744;52.576;13.568;2023-07-13T05:46:36;3.75;;;2.85;;
9409;SDS011;4744;52.576;13.568;2023-07-13T05:49:03;3.85;;;2.78;;
9409;SDS011;4744;52.576;13.568;2023-07-13T05:51:30;2.92;;;2.40;;
9409;SDS011;4744;52.576;13.568;2023-07-13T05:53:57;2.13;;;1.90;;
9409;SDS011;4744;52.576;13.568;2023-07-13T05:56:24;2.72;;;2.20;;
9409;SDS011;4744;52.576;13.568;2023-07-13T05:58:53;2.78;;;2.10;;
9409;SDS011;4744;52.576;13.568;2023-07-13T06:01:20;3.67;;;2.15;;
9409;SDS011;4744;52.576;13.568;2023-07-13T06:03:48;2.30;;;2.10;;
9409;SDS011;4744;52.576;13.568;2023-07-13T06:06:16;2.20;;;1.83;;
9409;SDS011;4744;52.576;13.568;2023-07-13T06:08:43;5.45;;;2.42;;
9409;SDS011;4744;52.576;13.568;2023-07-13T06:11:12;2.47;;;2.08;;
9409;SDS011;4744;52.576;13.568;2023-07-13T06:13:41;2.55;;;2.25;;
9409;SDS011;4744;52.576;13.568;2023-07-13T06:16:09;2.75;;;2.28;;
9409;SDS011;4744;52.576;13.568;2023-07-13T06:18:37;5.22;;;2.22;;
9409;SDS011;4744;52.576;13.568;2023-07-13T06:21:07;3.80;;;2.00;;
9409;SDS011;4744;52.576;13.568;2023-07-13T06:23:35;2.22;;;2.03;;
9409;SDS011;4744;52.576;13.568;2023-07-13T06:26:02;4.45;;;1.95;;
9409;SDS011;4744;52.576;13.568;2023-07-13T06:28:30;3.35;;;1.98;;
9409;SDS011;4744;52.576;13.568;2023-07-13T06:30:57;2.40;;;1.70;;
9409;SDS011;4744;52.576;13.568;2023-07-13T06:33:26;3.08;;;1.90;;
9409;SDS011;4744;52.576;13.568;2023-07-13T06:35:53;5.00;;;1.70;;
9409;SDS011;4744;52.576;13.568;2023-07-13T06:38:20;2.85;;;1.80;;
9409;SDS011;4744;52.576;13.568;2023-07-13T06:40:48;2.25;;;1.80;;
9409;SDS011;4744;52.576;13.568;2023-07-13T06:43:15;3.05;;;1.90;;
9409;SDS011;4744;52.576;13.568;2023-07-13T06:45:43;3.83;;;1.90;;
9409;SDS011;4744;52.576;13.568;2023-07-13T06:48:12;3.15;;;2.00;;
9409;SDS011;4744;52.576;13.568;2023-07-13T06:50:41;3.03;;;1.83;;
9409;SDS011;4744;52.576;13.568;2023-07-13T06:53:08;2.83;;;1.70;;
9409;SDS011;4744;52.576;13.568;2023-07-13T06:55:35;3.80;;;1.83;;
9409;SDS011;4744;52.576;13.568;2023-07-13T06:58:02;1.80;;;1.70;;
9409;SDS011;4744;52.576;13.568;2023-07-13T07:00:29;3.58;;;1.88;;
9409;SDS011;4744;52.576;13.568;2023-07-13T07:02:56;2.08;;;1.50;;
9409;SDS011;4744;52.576;13.568;2023-07-13T07:05:23;2.47;;;1.90;;
9409;SDS011;4744;52.576;13.568;2023-07-13T07:07:52;1.92;;;1.70;;
9409;SDS011;4744;52.576;13.568;2023-07-13T07:10:20;2.72;;;1.80;;
9409;SDS011;4744;52.576;13.568;2023-07-13T07:12:47;2.42;;;1.38;;
9409;SDS011;4744;52.576;13.568;2023-07-13T07:15:14;2.72;;;1.40;;
9409;SDS011;4744;52.576;13.568;2023-07-13T07:17:42;3.30;;;1.83;;
9409;SDS011;4744;52.576;13.568;2023-07-13T07:20:09;2.35;;;1.55;;
9409;SDS011;4744;52.576;13.568;2023-07-13T07:22:37;1.52;;;1.40;;
9409;SDS011;4744;52.576;13.568;2023-07-13T07:25:06;2.22;;;1.50;;
9409;SDS011;4744;52.576;13.568;2023-07-13T07:27:33;2.58;;;1.70;;
9409;SDS011;4744;52.576;13.568;2023-07-13T07:30:00;2.10;;;1.40;;
9409;SDS011;4744;52.576;13.568;2023-07-13T07:32:28;2.70;;;1.50;;
9409;SDS011;4744;52.576;13.568;2023-07-13T07:34:55;1.83;;;1.40;;
9409;SDS011;4744;52.576;13.568;2023-07-13T07:37:22;1.40;;;1.30;;
9409;SDS011;4744;52.576;13.568;2023-07-13T07:39:49;1.88;;;1.20;;
9409;SDS011;4744;52.576;13.568;2023-07-13T07:42:18;1.95;;;1.17;;
9409;SDS011;4744;52.576;13.568;2023-07-13T07:44:45;2.75;;;1.40;;
9409;SDS011;4744;52.576;13.568;2023-07-13T07:47:12;2.28;;;1.20;;
9409;SDS011;4744;52.576;13.568;2023-07-13T07:49:39;2.50;;;1.60;;
9409;SDS011;4744;52.576;13.568;2023-07-13T07:52:06;1.50;;;1.10;;
9409;SDS011;4744;52.576;13.568;2023-07-13T07:54:33;1.80;;;1.23;;
9409;SDS011;4744;52.576;13.568;2023-07-13T07:57:01;1.25;;;1.15;;
9409;SDS011;4744;52.576;13.568;2023-07-13T07:59:29;2.72;;;1.50;;
9409;SDS011;4744;52.576;13.568;2023-07-13T08:01:56;2.05;;;1.20;;
9409;SDS011;4744;52.576;13.568;2023-07-13T08:04:23;1.20;;;1.00;;
9409;SDS011;4744;52.576;13.568;2023-07-13T08:06:49;1.50;;;1.40;;
9409;SDS011;4744;52.576;13.568;2023-07-13T08:09:16;1.13;;;1.10;;
9409;SDS011;4744;52.576;13.568;2023-07-13T08:11:43;1.33;;;1.17;;
9409;SDS011;4744;52.576;13.568;2023-07-13T08:14:10;2.08;;;1.33;;
9409;SDS011;4744;52.576;13.568;2023-07-13T08:16:38;2.10;;;1.10;;
9409;SDS011;4744;52.576;13.568;2023-07-13T08:19:05;2.20;;;1.27;;
9409;SDS011;4744;52.576;13.568;2023-07-13T08:21:32;2.40;;;1.08;;
9409;SDS011;4744;52.576;13.568;2023-07-13T08:23:59;2.25;;;1.40;;
9409;SDS011;4744;52.576;13.568;2023-07-13T08:26:26;1.95;;;1.60;;
9409;SDS011;4744;52.576;13.568;2023-07-13T08:28:53;1.95;;;1.17;;
9409;SDS011;4744;52.576;13.568;2023-07-13T08:31:20;1.27;;;1.17;;
9409;SDS011;4744;52.576;13.568;2023-07-13T08:33:48;0.95;;;0.93;;
9409;SDS011;4744;52.576;13.568;2023-07-13T08:36:15;2.95;;;1.10;;
9409;SDS011;4744;52.576;13.568;2023-07-13T08:38:42;1.52;;;1.38;;
9409;SDS011;4744;52.576;13.568;2023-07-13T08:41:10;2.72;;;1.10;;
9409;SDS011;4744;52.576;13.568;2023-07-13T08:43:39;1.52;;;1.27;;
9409;SDS011;4744;52.576;13.568;2023-07-13T08:46:10;2.95;;;1.38;;
9409;SDS011;4744;52.576;13.568;2023-07-13T08:48:42;1.30;;;1.20;;
9409;SDS011;4744;52.576;13.568;2023-07-13T08:51:26;1.77;;;1.50;;
9409;SDS011;4744;52.576;13.568;2023-07-13T08:54:08;2.38;;;1.30;;
9409;SDS011;4744;52.576;13.568;2023-07-13T08:56:47;1.85;;;1.42;;
9409;SDS011;4744;52.576;13.568;2023-07-13T08:59:18;2.25;;;1.15;;
9409;SDS011;4744;52.576;13.568;2023-07-13T09:01:54;1.65;;;1.30;;
9409;SDS011;4744;52.576;13.568;2023-07-13T09:04:32;2.80;;;1.70;;
9409;SDS011;4744;52.576;13.568;2023-07-13T09:07:07;3.25;;;1.23;;
9409;SDS011;4744;52.576;13.568;2023-07-13T09:09:46;3.90;;;1.40;;
9409;SDS011;4744;52.576;13.568;2023-07-13T09:12:23;1.50;;;1.30;;
9409;SDS011;4744;52.576;13.568;2023-07-13T09:14:54;4.70;;;1.40;;
9409;SDS011;4744;52.576;13.568;2023-07-13T09:17:25;1.42;;;1.33;;
9409;SDS011;4744;52.576;13.568;2023-07-13T09:19:57;2.38;;;1.50;;
9409;SDS011;4744;52.576;13.568;2023-07-13T09:22:28;2.30;;;1.40;;
9409;SDS011;4744;52.576;13.568;2023-07-13T09:24:58;2.22;;;1.40;;
9409;SDS011;4744;52.576;13.568;2023-07-13T09:27:32;2.05;;;1.40;;
9409;SDS011;4744;52.576;13.568;2023-07-13T09:30:04;2.90;;;1.50;;
9409;SDS011;4744;52.576;13.568;2023-07-13T09:32:50;2.05;;;1.42;;
9409;SDS011;4744;52.576;13.568;2023-07-13T09:35:19;1.77;;;1.35;;
9409;SDS011;4744;52.576;13.568;2023-07-13T09:37:49;1.75;;;1.30;;
9409;SDS011;4744;52.576;13.568;2023-07-13T09:40:24;2.10;;;1.20;;
9409;SDS011;4744;52.576;13.568;2023-07-13T09:42:54;2.92;;;1.40;;
9409;SDS011;4744;52.576;13.568;2023-07-13T09:45:27;5.40;;;1.88;;
9409;SDS011;4744;52.576;13.568;2023-07-13T09:47:59;1.58;;;1.40;;
9409;SDS011;4744;52.576;13.568;2023-07-13T09:50:29;2.92;;;1.50;;
9409;SDS011;4744;52.576;13.568;2023-07-13T09:52:58;1.90;;;1.20;;
9409;SDS011;4744;52.576;13.568;2023-07-13T09:55:28;2.15;;;1.50;;
9409;SDS011;4744;52.576;13.568;2023-07-13T09:57:57;2.50;;;1.50;;
9409;SDS011;4744;52.576;13.568;2023-07-13T10:00:30;2.95;;;1.42;;
9409;SDS011;4744;52.576;13.568;2023-07-13T10:02:58;1.48;;;1.38;;
9409;SDS011;4744;52.576;13.568;2023-07-13T10:05:28;4.95;;;1.58;;
9409;SDS011;4744;52.576;13.568;2023-07-13T10:08:05;1.80;;;1.15;;
9409;SDS011;4744;52.576;13.568;2023-07-13T10:10:41;2.08;;;1.42;;
9409;SDS011;4744;52.576;13.568;2023-07-13T10:13:15;2.40;;;1.45;;
9409;SDS011;4744;52.576;13.568;2023-07-13T10:15:55;3.17;;;1.67;;
9409;SDS011;4744;52.576;13.568;2023-07-13T10:18:23;2.95;;;1.70;;
9409;SDS011;4744;52.576;13.568;2023-07-13T10:20:53;4.28;;;1.70;;
9409;SDS011;4744;52.576;13.568;2023-07-13T10:23:32;1.70;;;1.50;;
9409;SDS011;4744;52.576;13.568;2023-07-13T10:26:00;2.35;;;1.88;;
9409;SDS011;4744;52.576;13.568;2023-07-13T10:28:29;1.98;;;1.70;;
9409;SDS011;4744;52.576;13.568;2023-07-13T10:30:59;2.40;;;1.77;;
9409;SDS011;4744;52.576;13.568;2023-07-13T10:33:27;5.40;;;1.80;;
9409;SDS011;4744;52.576;13.568;2023-07-13T10:35:55;4.65;;;1.98;;
9409;SDS011;4744;52.576;13.568;2023-07-13T10:38:35;2.20;;;1.83;;
9409;SDS011;4744;52.576;13.568;2023-07-13T10:41:03;3.10;;;1.80;;
9409;SDS011;4744;52.576;13.568;2023-07-13T10:43:33;2.90;;;1.65;;
9409;SDS011;4744;52.576;13.568;2023-07-13T10:46:03;3.25;;;1.95;;
9409;SDS011;4744;52.576;13.568;2023-07-13T10:48:32;1.50;;;1.40;;
9409;SDS011;4744;52.576;13.568;2023-07-13T10:51:02;5.00;;;1.80;;
9409;SDS011;4744;52.576;13.568;2023-07-13T10:53:32;2.42;;;1.83;;
9409;SDS011;4744;52.576;13.568;2023-07-13T10:56:03;1.80;;;1.70;;
9409;SDS011;4744;52.576;13.568;2023-07-13T10:58:36;2.72;;;1.73;;
9409;SDS011;4744;52.576;13.568;2023-07-13T11:01:07;1.90;;;1.80;;
9409;SDS011;4744;52.576;13.568;2023-07-13T11:03:37;3.70;;;1.90;;
9409;SDS011;4744;52.576;13.568;2023-07-13T11:06:15;2.70;;;1.90;;
9409;SDS011;4744;52.576;13.568;2023-07-13T11:08:53;2.28;;;1.70;;
9409;SDS011;4744;52.576;13.568;2023-07-13T11:11:33;3.35;;;1.88;;
9409;SDS011;4744;52.576;13.568;2023-07-13T11:14:03;2.95;;;1.90;;
9409;SDS011;4744;52.576;13.568;2023-07-13T11:19:24;2.67;;;1.80;;
9409;SDS011;4744;52.576;13.568;2023-07-13T11:22:13;2.38;;;1.83;;
9409;SDS011;4744;52.576;13.568;2023-07-13T11:24:49;7.85;;;2.25;;
9409;SDS011;4744;52.576;13.568;2023-07-13T11:27:24;3.03;;;1.92;;
9409;SDS011;4744;52.576;13.568;2023-07-13T11:30:13;2.63;;;1.85;;
9409;SDS011;4744;52.576;13.568;2023-07-13T11:32:50;2.17;;;1.77;;
9409;SDS011;4744;52.576;13.568;2023-07-13T11:35:31;3.33;;;1.92;;
9409;SDS011;4744;52.576;13.568;2023-07-13T11:38:00;2.35;;;1.80;;
9409;SDS011;4744;52.576;13.568;2023-07-13T11:40:28;6.90;;;2.35;;
9409;SDS011;4744;52.576;13.568;2023-07-13T11:43:00;4.30;;;2.05;;
9409;SDS011;4744;52.576;13.568;2023-07-13T11:45:27;2.58;;;1.90;;
9409;SDS011;4744;52.576;13.568;2023-07-13T11:47:54;1.90;;;1.70;;
9409;SDS011;4744;52.576;13.568;2023-07-13T11:50:25;3.95;;;1.77;;
9409;SDS011;4744;52.576;13.568;2023-07-13T11:52:52;1.75;;;1.65;;
9409;SDS011;4744;52.576;13.568;2023-07-13T11:55:21;5.00;;;1.92;;
9409;SDS011;4744;52.576;13.568;2023-07-13T11:57:50;4.95;;;1.85;;
9409;SDS011;4744;52.576;13.568;2023-07-13T12:00:25;7.68;;;2.13;;
9409;SDS011;4744;52.576;13.568;2023-07-13T12:02:56;7.97;;;1.83;;
9409;SDS011;4744;52.576;13.568;2023-07-13T12:05:25;2.45;;;1.88;;
9409;SDS011;4744;52.576;13.568;2023-07-13T12:07:53;2.35;;;1.40;;
9409;SDS011;4744;52.576;13.568;2023-07-13T12:10:21;3.15;;;1.55;;
9409;SDS011;4744;52.576;13.568;2023-07-13T12:12:52;3.35;;;1.73;;
9409;SDS011;4744;52.576;13.568;2023-07-13T12:15:20;3.03;;;1.60;;
9409;SDS011;4744;52.576;13.568;2023-07-13T12:17:49;2.97;;;1.60;;
9409;SDS011;4744;52.576;13.568;2023-07-13T12:20:20;3.13;;;1.60;;
9409;SDS011;4744;52.576;13.568;2023-07-13T12:22:50;3.65;;;1.50;;
9409;SDS011;4744;52.576;13.568;2023-07-13T12:25:17;7.00;;;1.92;;
9409;SDS011;4744;52.576;13.568;2023-07-13T12:27:46;4.53;;;1.70;;
9409;SDS011;4744;52.576;13.568;2023-07-13T12:30:24;1.75;;;1.60;;
9409;SDS011;4744;52.576;13.568;2023-07-13T12:33:00;8.52;;;1.70;;
9409;SDS011;4744;52.576;13.568;2023-07-13T12:35:29;2.63;;;1.35;;
9409;SDS011;4744;52.576;13.568;2023-07-13T12:38:00;2.83;;;1.73;;
9409;SDS011;4744;52.576;13.568;2023-07-13T12:40:29;2.70;;;1.40;;
9409;SDS011;4744;52.576;13.568;2023-07-13T12:43:00;4.28;;;1.77;;
9409;SDS011;4744;52.576;13.568;2023-07-13T12:45:29;2.60;;;1.60;;
9409;SDS011;4744;52.576;13.568;2023-07-13T12:47:57;2.28;;;1.65;;
9409;SDS011;4744;52.576;13.568;2023-07-13T12:50:34;4.15;;;1.73;;
9409;SDS011;4744;52.576;13.568;2023-07-13T12:53:09;1.98;;;1.70;;
9409;SDS011;4744;52.576;13.568;2023-07-13T12:55:40;2.00;;;1.80;;
9409;SDS011;4744;52.576;13.568;2023-07-13T12:58:09;3.42;;;1.45;;
9409;SDS011;4744;52.576;13.568;2023-07-13T13:00:47;5.20;;;1.63;;
9409;SDS011;4744;52.576;13.568;2023-07-13T13:03:22;3.15;;;1.52;;
9409;SDS011;4744;52.576;13.568;2023-07-13T13:05:58;3.30;;;1.42;;
9409;SDS011;4744;52.576;13.568;2023-07-13T13:08:28;1.50;;;1.40;;
9409;SDS011;4744;52.576;13.568;2023-07-13T13:10:55;1.77;;;1.30;;
9409;SDS011;4744;52.576;13.568;2023-07-13T13:13:22;2.05;;;1.50;;
9409;SDS011;4744;52.576;13.568;2023-07-13T13:15:49;3.25;;;1.50;;
9409;SDS011;4744;52.576;13.568;2023-07-13T13:18:17;1.42;;;1.13;;
9409;SDS011;4744;52.576;13.568;2023-07-13T13:20:47;2.17;;;1.20;;
9409;SDS011;4744;52.576;13.568;2023-07-13T13:23:15;3.45;;;1.50;;
9409;SDS011;4744;52.576;13.568;2023-07-13T13:25:43;2.00;;;1.50;;
9409;SDS011;4744;52.576;13.568;2023-07-13T13:28:13;2.15;;;1.27;;
9409;SDS011;4744;52.576;13.568;2023-07-13T13:30:41;2.55;;;1.20;;
9409;SDS011;4744;52.576;13.568;2023-07-13T13:33:09;2.22;;;1.30;;
9409;SDS011;4744;52.576;13.568;2023-07-13T13:35:37;2.42;;;1.15;;
9409;SDS011;4744;52.576;13.568;2023-07-13T13:38:09;1.30;;;1.20;;
9409;SDS011;4744;52.576;13.568;2023-07-13T13:40:39;1.40;;;1.30;;
9409;SDS011;4744;52.576;13.568;2023-07-13T13:43:14;3.25;;;1.20;;
9409;SDS011;4744;52.576;13.568;2023-07-13T13:45:42;3.33;;;1.45;;
9409;SDS011;4744;52.576;13.568;2023-07-13T13:48:13;3.42;;;1.50;;
9409;SDS011;4744;52.576;13.568;2023-07-13T13:50:42;2.15;;;1.10;;
9409;SDS011;4744;52.576;13.568;2023-07-13T13:53:11;2.15;;;1.35;;
9409;SDS011;4744;52.576;13.568;2023-07-13T13:55:39;2.38;;;1.40;;
9409;SDS011;4744;52.576;13.568;2023-07-13T13:58:07;3.50;;;1.58;;
9409;SDS011;4744;52.576;13.568;2023-07-13T14:00:34;2.42;;;1.60;;
9409;SDS011;4744;52.576;13.568;2023-07-13T14:03:01;2.70;;;1.58;;
9409;SDS011;4744;52.576;13.568;2023-07-13T14:05:29;3.10;;;1.80;;
9409;SDS011;4744;52.576;13.568;2023-07-13T14:07:57;2.28;;;1.50;;
9409;SDS011;4744;52.576;13.568;2023-07-13T14:10:26;3.08;;;1.65;;
9409;SDS011;4744;52.576;13.568;2023-07-13T14:12:54;2.20;;;1.33;;
9409;SDS011;4744;52.576;13.568;2023-07-13T14:15:23;1.58;;;1.25;;
9409;SDS011;4744;52.576;13.568;2023-07-13T14:17:52;2.13;;;1.42;;
9409;SDS011;4744;52.576;13.568;2023-07-13T14:20:19;4.55;;;1.52;;
9409;SDS011;4744;52.576;13.568;2023-07-13T14:22:49;3.17;;;1.48;;
9409;SDS011;4744;52.576;13.568;2023-07-13T14:25:17;1.80;;;1.20;;
9409;SDS011;4744;52.576;13.568;2023-07-13T14:27:46;3.08;;;1.42;;
9409;SDS011;4744;52.576;13.568;2023-07-13T14:30:18;1.77;;;1.40;;
9409;SDS011;4744;52.576;13.568;2023-07-13T14:32:47;3.30;;;1.50;;
9409;SDS011;4744;52.576;13.568;2023-07-13T14:35:15;2.47;;;1.30;;
9409;SDS011;4744;52.576;13.568;2023-07-13T14:37:45;1.88;;;1.50;;
9409;SDS011;4744;52.576;13.568;2023-07-13T14:40:13;2.60;;;1.38;;
9409;SDS011;4744;52.576;13.568;2023-07-13T14:42:41;2.58;;;1.13;;
9409;SDS011;4744;52.576;13.568;2023-07-13T14:45:13;1.55;;;1.10;;
9409;SDS011;4744;52.576;13.568;2023-07-13T14:47:41;1.98;;;1.17;;
9409;SDS011;4744;52.576;13.568;2023-07-13T14:50:12;3.05;;;1.52;;
9409;SDS011;4744;52.576;13.568;2023-07-13T14:52:42;1.80;;;1.15;;
9409;SDS011;4744;52.576;13.568;2023-07-13T14:55:12;1.98;;;1.27;;
9409;SDS011;4744;52.576;13.568;2023-07-13T14:57:40;2.15;;;1.50;;
9409;SDS011;4744;52.576;13.568;2023-07-13T15:00:14;2.05;;;1.50;;
9409;SDS011;4744;52.576;13.568;2023-07-13T15:02:43;2.88;;;1.27;;
9409;SDS011;4744;52.576;13.568;2023-07-13T15:05:15;2.03;;;1.25;;
9409;SDS011;4744;52.576;13.568;2023-07-13T15:07:44;1.40;;;1.30;;
9409;SDS011;4744;52.576;13.568;2023-07-13T15:10:15;2.63;;;1.40;;
9409;SDS011;4744;52.576;13.568;2023-07-13T15:12:43;1.85;;;1.20;;
9409;SDS011;4744;52.576;13.568;2023-07-13T15:15:10;3.17;;;0.85;;
9409;SDS011;4744;52.576;13.568;2023-07-13T15:17:40;2.72;;;1.15;;